createdAt,value
2016-09-15T00:03:45.812Z,1006.40
2016-09-15T00:08:43.055Z,1006.30
2016-09-15T00:13:39.682Z,1006.22
2016-09-15T00:18:36.761Z,1006.17
2016-09-15T00:23:33.299Z,1006.27
2016-09-15T00:28:30.047Z,1006.28
2016-09-15T00:33:26.636Z,1006.24
2016-09-15T00:38:23.223Z,1006.16
2016-09-15T00:43:20.093Z,1006.14
2016-09-15T00:48:16.753Z,1006.05
2016-09-15T00:53:13.363Z,1005.97
2016-09-15T00:58:10.082Z,1006.02
2016-09-15T01:03:06.581Z,1006.05
2016-09-15T01:08:03.282Z,1006.06
2016-09-15T01:13:00.049Z,1006.03
2016-09-15T01:17:56.818Z,1005.96
2016-09-15T01:22:53.610Z,1005.96
2016-09-15T01:27:50.179Z,1005.96
2016-09-15T01:32:46.748Z,1005.96
2016-09-15T01:37:45.746Z,1005.89
2016-09-15T01:42:41.930Z,1005.84
2016-09-15T01:47:38.624Z,1005.83
2016-09-15T01:52:35.273Z,1005.79
2016-09-15T01:57:31.926Z,1005.83
2016-09-15T02:02:31.159Z,1005.85
2016-09-15T02:07:27.162Z,1005.76
2016-09-15T02:12:23.774Z,1005.86
2016-09-15T02:17:20.861Z,1005.86
2016-09-15T02:22:17.623Z,1005.80
2016-09-15T02:27:14.203Z,1005.68
2016-09-15T02:32:10.783Z,1005.79
2016-09-15T02:37:07.705Z,1005.64
2016-09-15T02:42:04.387Z,1005.67
2016-09-15T02:47:00.861Z,1005.61
2016-09-15T02:51:57.939Z,1005.64
2016-09-15T02:56:54.665Z,1005.61
2016-09-15T03:01:51.305Z,1005.57
2016-09-15T03:06:47.898Z,1005.61
2016-09-15T03:11:44.741Z,1005.65
2016-09-15T03:16:41.200Z,1005.52
2016-09-15T03:21:37.954Z,1005.42
2016-09-15T03:26:34.152Z,1005.49
2016-09-15T03:31:31.248Z,1005.36
2016-09-15T03:36:29.066Z,1005.38
2016-09-15T03:41:25.376Z,1005.20
2016-09-15T03:46:22.101Z,1005.22
2016-09-15T03:51:18.737Z,1005.27
2016-09-15T03:56:15.352Z,1005.25
2016-09-15T04:01:11.906Z,1005.38
2016-09-15T04:06:08.542Z,1005.40
2016-09-15T04:11:05.063Z,1005.37
2016-09-15T04:16:01.545Z,1005.28
2016-09-15T04:20:58.108Z,1005.21
2016-09-15T04:25:54.676Z,1005.34
2016-09-15T04:30:51.068Z,1005.28
2016-09-15T04:35:47.903Z,1005.23
2016-09-15T04:40:44.598Z,1005.27
2016-09-15T04:45:41.135Z,1005.24
2016-09-15T04:50:38.170Z,1005.26
2016-09-15T04:55:34.919Z,1005.33
2016-09-15T05:00:31.328Z,1005.39
2016-09-15T05:05:28.094Z,1005.30
2016-09-15T05:10:25.003Z,1005.29
2016-09-15T05:15:21.617Z,1005.27
2016-09-15T05:25:18.669Z,1005.34
2016-09-15T05:30:15.344Z,1005.37
2016-09-15T05:35:12.304Z,1005.54
2016-09-15T05:40:08.982Z,1005.44
2016-09-15T05:45:05.697Z,1005.39
2016-09-15T05:50:02.645Z,1005.54
2016-09-15T05:54:59.257Z,1005.50
2016-09-15T05:59:55.956Z,1005.57
2016-09-15T06:04:52.515Z,1005.51
2016-09-15T06:09:49.330Z,1005.53
2016-09-15T06:14:46.299Z,1005.54
2016-09-15T06:19:43.014Z,1005.55
2016-09-15T06:24:39.804Z,1005.49
2016-09-15T06:29:36.660Z,1005.59
2016-09-15T06:34:34.565Z,1005.59
2016-09-15T06:39:31.027Z,1005.47
2016-09-15T06:44:27.655Z,1005.51
2016-09-15T06:49:24.299Z,1005.54
2016-09-15T06:54:20.805Z,1005.52
2016-09-15T06:59:17.548Z,1005.52
2016-09-15T07:04:14.392Z,1005.44
2016-09-15T07:09:11.009Z,1005.54
2016-09-15T07:14:07.748Z,1005.50
2016-09-15T07:19:04.326Z,1005.48
2016-09-15T07:24:01.036Z,1005.55
2016-09-15T07:28:58.054Z,1005.48
2016-09-15T07:33:55.077Z,1005.51
2016-09-15T07:38:51.814Z,1005.41
2016-09-15T07:43:48.404Z,1005.43
2016-09-15T07:48:45.199Z,1005.47
2016-09-15T07:53:43.103Z,1005.55
2016-09-15T07:58:39.496Z,1005.48
2016-09-15T08:03:36.302Z,1005.58
2016-09-15T08:08:33.399Z,1005.58
2016-09-15T08:13:30.410Z,1005.67
2016-09-15T08:18:27.323Z,1005.57
2016-09-15T08:23:24.233Z,1005.62
2016-09-15T08:28:21.233Z,1005.54
2016-09-15T08:33:18.238Z,1005.49
2016-09-15T08:38:15.117Z,1005.53
2016-09-15T08:43:12.029Z,1005.48
2016-09-15T08:48:08.949Z,1005.53
2016-09-15T08:53:05.701Z,1005.50
2016-09-15T08:58:02.440Z,1005.49
2016-09-15T09:02:58.825Z,1005.50
2016-09-15T09:07:55.427Z,1005.41
2016-09-15T09:12:51.775Z,1005.39
2016-09-15T09:17:48.307Z,1005.36
2016-09-15T09:22:44.852Z,1005.40
2016-09-15T09:27:41.571Z,1005.40
2016-09-15T09:32:38.274Z,1005.41
2016-09-15T09:37:37.317Z,1005.34
2016-09-15T09:42:33.309Z,1005.31
2016-09-15T09:47:32.415Z,1005.24
2016-09-15T09:52:28.537Z,1005.18
2016-09-15T09:57:25.317Z,1005.14
2016-09-15T10:02:22.149Z,1005.11
2016-09-15T10:07:18.742Z,1005.08
2016-09-15T10:12:15.377Z,1005.05
2016-09-15T10:17:12.033Z,1005.02
2016-09-15T10:22:08.808Z,1005.01
2016-09-15T10:27:05.729Z,1004.95
2016-09-15T10:32:02.492Z,1005.01
2016-09-15T10:36:59.176Z,1004.85
2016-09-15T10:41:55.849Z,1004.87
2016-09-15T10:46:52.411Z,1004.82
2016-09-15T10:51:49.190Z,1004.75
2016-09-15T10:56:46.982Z,1004.70
2016-09-15T11:01:43.442Z,1004.85
2016-09-15T11:06:40.310Z,1004.79
2016-09-15T11:11:40.008Z,1004.65
2016-09-15T11:16:36.568Z,1004.59
2016-09-15T11:21:33.199Z,1004.57
2016-09-15T11:26:29.853Z,1004.69
2016-09-15T11:31:26.916Z,1004.55
2016-09-15T11:36:23.529Z,1004.66
2016-09-15T11:41:20.308Z,1004.55
2016-09-15T11:46:16.969Z,1004.58
2016-09-15T11:51:13.735Z,1004.44
2016-09-15T11:56:10.368Z,1004.44
2016-09-15T12:01:06.924Z,1004.41
2016-09-15T12:06:03.644Z,1004.29
2016-09-15T12:11:00.372Z,1004.16
2016-09-15T12:15:57.214Z,1004.26
2016-09-15T12:20:54.364Z,1004.15
2016-09-15T12:25:50.995Z,1004.17
2016-09-15T12:30:48.233Z,1004.04
2016-09-15T12:35:44.922Z,1004.07
2016-09-15T12:40:41.680Z,1003.90
2016-09-15T12:45:38.378Z,1003.87
2016-09-15T12:50:34.959Z,1003.90
2016-09-15T12:55:31.731Z,1003.82
2016-09-15T13:00:28.676Z,1003.75
2016-09-15T13:05:25.384Z,1003.68
2016-09-15T13:10:24.523Z,1003.66
2016-09-15T13:15:20.712Z,1003.63
2016-09-15T13:20:17.381Z,1003.56
2016-09-15T13:25:13.806Z,1003.59
2016-09-15T13:30:10.388Z,1003.42
2016-09-15T13:35:07.167Z,1003.34
2016-09-15T13:40:04.384Z,1003.31
2016-09-15T13:45:00.994Z,1003.41
2016-09-15T13:49:57.586Z,1003.36
2016-09-15T13:54:54.275Z,1003.34
2016-09-15T13:59:51.433Z,1003.45
2016-09-15T14:04:48.157Z,1003.35
2016-09-15T14:09:50.827Z,1003.26
2016-09-15T14:14:46.379Z,1003.24
2016-09-15T14:19:45.603Z,1003.24
2016-09-15T14:24:42.313Z,1003.15
2016-09-15T14:29:39.093Z,1003.19
2016-09-15T14:34:35.991Z,1003.19
2016-09-15T14:39:32.719Z,1003.27
2016-09-15T14:44:29.628Z,1003.25
2016-09-15T14:49:26.544Z,1003.16
2016-09-15T14:54:23.177Z,1003.19
2016-09-15T14:59:19.745Z,1003.06
2016-09-15T15:04:16.425Z,1003.19
2016-09-15T15:09:13.111Z,1003.18
2016-09-15T15:14:09.807Z,1003.16
2016-09-15T15:19:06.688Z,1003.12
2016-09-15T15:24:03.575Z,1003.06
2016-09-15T15:29:00.197Z,1002.96
2016-09-15T15:33:56.834Z,1002.98
2016-09-15T15:38:53.524Z,1002.94
2016-09-15T15:43:52.669Z,1002.96
2016-09-15T15:48:48.773Z,1002.94
2016-09-15T15:53:45.971Z,1002.96
2016-09-15T15:58:42.803Z,1003.05
2016-09-15T16:03:39.419Z,1003.00
2016-09-15T16:08:37.589Z,1002.96
2016-09-15T16:13:33.852Z,1003.05
2016-09-15T16:18:30.446Z,1003.06
2016-09-15T16:23:27.102Z,1003.09
2016-09-15T16:28:23.748Z,1003.01
2016-09-15T16:33:20.551Z,1003.03
2016-09-15T16:38:17.316Z,1003.01
2016-09-15T16:43:13.996Z,1003.08
2016-09-15T16:48:10.872Z,1003.14
2016-09-15T16:53:07.441Z,1003.11
2016-09-15T16:58:04.115Z,1003.09
2016-09-15T17:03:01.209Z,1003.06
2016-09-15T17:07:58.006Z,1003.07
2016-09-15T17:12:54.724Z,1003.04
2016-09-15T17:17:51.365Z,1003.13
2016-09-15T17:22:48.087Z,1003.21
2016-09-15T17:27:45.127Z,1003.23
2016-09-15T17:32:41.556Z,1003.16
2016-09-15T17:37:38.388Z,1003.21
2016-09-15T17:42:35.121Z,1003.25
2016-09-15T17:47:31.815Z,1003.15
2016-09-15T17:52:30.810Z,1003.23
2016-09-15T17:57:26.828Z,1003.18
2016-09-15T18:02:23.574Z,1003.16
2016-09-15T18:07:20.165Z,1003.26
2016-09-15T18:12:17.098Z,1003.33
2016-09-15T18:17:13.688Z,1003.38
2016-09-15T18:22:10.375Z,1003.30
2016-09-15T18:27:07.021Z,1003.36
2016-09-15T18:32:04.518Z,1003.38
2016-09-15T18:37:01.231Z,1003.40
2016-09-15T18:41:57.851Z,1003.43
2016-09-15T18:46:54.459Z,1003.35
2016-09-15T18:51:51.054Z,1003.51
2016-09-15T18:56:47.613Z,1003.48
2016-09-15T19:01:44.135Z,1003.52
2016-09-15T19:06:40.738Z,1003.54
2016-09-15T19:11:37.187Z,1003.48
2016-09-15T19:16:34.184Z,1003.57
2016-09-15T19:21:30.978Z,1003.50
2016-09-15T19:26:27.679Z,1003.41
2016-09-15T19:31:24.395Z,1003.48
2016-09-15T19:36:21.087Z,1003.45
2016-09-15T19:41:17.753Z,1003.52
2016-09-15T19:46:14.696Z,1003.48
2016-09-15T19:51:11.316Z,1003.52
2016-09-15T19:56:07.746Z,1003.47
2016-09-15T20:01:04.399Z,1003.51
2016-09-15T20:06:01.031Z,1003.49
2016-09-15T20:10:57.545Z,1003.51
2016-09-15T20:15:54.415Z,1003.51
2016-09-15T20:20:51.067Z,1003.48
2016-09-15T20:25:47.789Z,1003.47
2016-09-15T20:30:44.492Z,1003.51
2016-09-15T20:35:41.096Z,1003.50
2016-09-15T20:40:37.981Z,1003.51
2016-09-15T20:45:34.516Z,1003.55
2016-09-15T20:50:31.263Z,1003.61
2016-09-15T20:55:30.486Z,1003.76
2016-09-15T21:00:26.633Z,1003.88
2016-09-15T21:05:23.168Z,1004.02
2016-09-15T21:10:19.838Z,1003.91
2016-09-15T21:15:16.497Z,1004.00
2016-09-15T21:20:13.637Z,1004.06
2016-09-15T21:25:13.280Z,1004.07
2016-09-15T21:30:09.578Z,1004.14
2016-09-15T21:35:06.219Z,1004.24
2016-09-15T21:40:03.111Z,1004.30
2016-09-15T21:44:59.681Z,1004.22
2016-09-15T21:49:56.568Z,1004.35
2016-09-15T21:54:53.333Z,1004.40
2016-09-15T21:59:49.854Z,1004.52
2016-09-15T22:04:47.038Z,1004.51
2016-09-15T22:09:44.165Z,1004.58
2016-09-15T22:14:40.595Z,1004.71
2016-09-15T22:19:37.064Z,1004.80
2016-09-15T22:24:33.831Z,1004.79
2016-09-15T22:29:30.405Z,1004.96
2016-09-15T22:34:27.157Z,1005.03
2016-09-15T22:39:23.723Z,1005.00
2016-09-15T22:44:20.352Z,1005.04
2016-09-15T22:49:17.146Z,1005.01
2016-09-15T22:54:13.796Z,1005.12
2016-09-15T22:59:10.383Z,1005.21
2016-09-15T23:04:07.367Z,1005.28
2016-09-15T23:09:03.977Z,1005.24
2016-09-15T23:14:00.751Z,1005.38
2016-09-15T23:18:57.479Z,1005.53
2016-09-15T23:23:54.142Z,1005.43
2016-09-15T23:28:51.306Z,1005.50
2016-09-15T23:33:47.985Z,1005.55
2016-09-15T23:38:44.573Z,1005.61
2016-09-15T23:43:40.980Z,1005.57
2016-09-15T23:48:37.627Z,1005.58
2016-09-15T23:53:34.217Z,1005.56
2016-09-15T23:58:32.135Z,1005.58
